sensor_id;sensor_type;location;lat;lon;timestamp;temperature;humidity
38398;DHT22;24179;52.094;4.408;2023-06-10T00:02:48;21.10;99.90
38398;DHT22;24179;52.094;4.408;2023-06-10T00:05:49;21.10;99.90
38398;DHT22;24179;52.094;4.408;2023-06-10T00:08:50;21.10;99.90
38398;DHT22;24179;52.094;4.408;2023-06-10T00:11:50;21.10;99.90
38398;DHT22;24179;52.094;4.408;2023-06-10T00:14:51;21.00;99.90
38398;DHT22;24179;52.094;4.408;2023-06-10T00:17:53;20.90;99.90
38398;DHT22;24179;52.094;4.408;2023-06-10T00:20:55;20.90;99.90
38398;DHT22;24179;52.094;4.408;2023-06-10T00:23:55;20.80;99.90
38398;DHT22;24179;52.094;4.408;2023-06-10T00:26:56;20.80;99.90
38398;DHT22;24179;52.094;4.408;2023-06-10T00:29:56;20.70;99.90
38398;DHT22;24179;52.094;4.408;2023-06-10T00:32:57;20.60;99.90
38398;DHT22;24179;52.094;4.408;2023-06-10T00:35:58;20.60;99.90
38398;DHT22;24179;52.094;4.408;2023-06-10T00:38:58;20.60;99.90
38398;DHT22;24179;52.094;4.408;2023-06-10T00:41:59;20.60;99.90
38398;DHT22;24179;52.094;4.408;2023-06-10T00:44:59;20.50;99.90
38398;DHT22;24179;52.094;4.408;2023-06-10T00:48:00;20.50;99.90
38398;DHT22;24179;52.094;4.408;2023-06-10T00:51:01;20.50;99.90
38398;DHT22;24179;52.094;4.408;2023-06-10T00:54:01;20.50;99.90
38398;DHT22;24179;52.094;4.408;2023-06-10T00:57:02;20.40;99.90
38398;DHT22;24179;52.094;4.408;2023-06-10T01:00:02;20.40;99.90
38398;DHT22;24179;52.094;4.408;2023-06-10T01:03:07;20.30;99.90
38398;DHT22;24179;52.094;4.408;2023-06-10T01:06:24;20.30;99.90
38398;DHT22;24179;52.094;4.408;2023-06-10T01:12:41;20.20;99.90
38398;DHT22;24179;52.094;4.408;2023-06-10T01:15:50;20.20;99.90
38398;DHT22;24179;52.094;4.408;2023-06-10T01:18:51;20.10;99.90
38398;DHT22;24179;52.094;4.408;2023-06-10T01:21:52;20.10;99.90
38398;DHT22;24179;52.094;4.408;2023-06-10T01:24:55;20.00;99.90
38398;DHT22;24179;52.094;4.408;2023-06-10T01:28:02;20.00;99.90
38398;DHT22;24179;52.094;4.408;2023-06-10T01:31:15;19.90;99.90
38398;DHT22;24179;52.094;4.408;2023-06-10T01:34:17;19.90;99.90
38398;DHT22;24179;52.094;4.408;2023-06-10T01:37:18;19.90;99.90
38398;DHT22;24179;52.094;4.408;2023-06-10T01:40:19;19.80;99.90
38398;DHT22;24179;52.094;4.408;2023-06-10T01:43:20;19.80;99.90
38398;DHT22;24179;52.094;4.408;2023-06-10T01:46:20;19.70;99.90
38398;DHT22;24179;52.094;4.408;2023-06-10T01:49:21;19.70;99.90
38398;DHT22;24179;52.094;4.408;2023-06-10T01:52:24;19.60;99.90
38398;DHT22;24179;52.094;4.408;2023-06-10T01:55:25;19.60;99.90
38398;DHT22;24179;52.094;4.408;2023-06-10T01:58:25;19.60;99.90
38398;DHT22;24179;52.094;4.408;2023-06-10T02:01:26;19.50;99.90
38398;DHT22;24179;52.094;4.408;2023-06-10T02:04:26;19.40;99.90
38398;DHT22;24179;52.094;4.408;2023-06-10T02:07:26;19.40;99.90
38398;DHT22;24179;52.094;4.408;2023-06-10T02:10:27;19.40;99.90
38398;DHT22;24179;52.094;4.408;2023-06-10T02:13:27;19.40;99.90
38398;DHT22;24179;52.094;4.408;2023-06-10T02:16:28;19.40;99.90
38398;DHT22;24179;52.094;4.408;2023-06-10T02:19:28;19.30;99.90
38398;DHT22;24179;52.094;4.408;2023-06-10T02:22:29;19.30;99.90
38398;DHT22;24179;52.094;4.408;2023-06-10T02:25:29;19.20;99.90
38398;DHT22;24179;52.094;4.408;2023-06-10T02:28:30;19.20;99.90
38398;DHT22;24179;52.094;4.408;2023-06-10T02:31:30;19.20;99.90
38398;DHT22;24179;52.094;4.408;2023-06-10T02:34:31;19.20;99.90
38398;DHT22;24179;52.094;4.408;2023-06-10T02:37:31;19.10;99.90
38398;DHT22;24179;52.094;4.408;2023-06-10T02:40:31;19.10;99.90
38398;DHT22;24179;52.094;4.408;2023-06-10T02:43:32;19.10;99.90
38398;DHT22;24179;52.094;4.408;2023-06-10T02:46:32;19.20;99.90
38398;DHT22;24179;52.094;4.408;2023-06-10T02:49:33;19.10;99.90
38398;DHT22;24179;52.094;4.408;2023-06-10T02:52:33;19.00;99.90
38398;DHT22;24179;52.094;4.408;2023-06-10T02:55:34;19.00;99.90
38398;DHT22;24179;52.094;4.408;2023-06-10T02:58:35;18.90;99.90
38398;DHT22;24179;52.094;4.408;2023-06-10T03:01:35;18.90;99.90
38398;DHT22;24179;52.094;4.408;2023-06-10T03:04:39;18.80;99.90
38398;DHT22;24179;52.094;4.408;2023-06-10T03:07:41;18.80;99.90
38398;DHT22;24179;52.094;4.408;2023-06-10T03:10:41;18.70;99.90
38398;DHT22;24179;52.094;4.408;2023-06-10T03:13:42;18.70;99.90
38398;DHT22;24179;52.094;4.408;2023-06-10T03:16:42;18.60;99.90
38398;DHT22;24179;52.094;4.408;2023-06-10T03:19:44;18.60;99.90
38398;DHT22;24179;52.094;4.408;2023-06-10T03:22:44;18.60;99.90
38398;DHT22;24179;52.094;4.408;2023-06-10T03:25:45;18.60;99.90
38398;DHT22;24179;52.094;4.408;2023-06-10T03:28:46;18.50;99.90
38398;DHT22;24179;52.094;4.408;2023-06-10T03:31:46;18.50;99.90
38398;DHT22;24179;52.094;4.408;2023-06-10T03:34:46;18.60;99.90
38398;DHT22;24179;52.094;4.408;2023-06-10T03:37:47;18.50;99.90
38398;DHT22;24179;52.094;4.408;2023-06-10T03:40:48;18.50;99.90
38398;DHT22;24179;52.094;4.408;2023-06-10T03:43:48;18.40;99.90
38398;DHT22;24179;52.094;4.408;2023-06-10T03:46:49;18.40;99.90
38398;DHT22;24179;52.094;4.408;2023-06-10T03:49:49;18.40;99.90
38398;DHT22;24179;52.094;4.408;2023-06-10T03:52:50;18.40;99.90
38398;DHT22;24179;52.094;4.408;2023-06-10T03:55:50;18.40;99.90
38398;DHT22;24179;52.094;4.408;2023-06-10T03:58:51;18.40;99.90
38398;DHT22;24179;52.094;4.408;2023-06-10T04:01:51;18.50;99.90
38398;DHT22;24179;52.094;4.408;2023-06-10T04:04:52;18.40;99.90
38398;DHT22;24179;52.094;4.408;2023-06-10T04:07:52;18.50;99.90
38398;DHT22;24179;52.094;4.408;2023-06-10T04:10:53;18.50;99.90
38398;DHT22;24179;52.094;4.408;2023-06-10T04:13:54;18.50;99.90
38398;DHT22;24179;52.094;4.408;2023-06-10T04:16:54;18.40;99.90
38398;DHT22;24179;52.094;4.408;2023-06-10T04:19:54;18.40;99.90
38398;DHT22;24179;52.094;4.408;2023-06-10T04:22:56;18.50;99.90
38398;DHT22;24179;52.094;4.408;2023-06-10T04:25:56;18.50;99.90
38398;DHT22;24179;52.094;4.408;2023-06-10T04:28:57;18.50;99.90
38398;DHT22;24179;52.094;4.408;2023-06-10T04:31:57;18.50;99.90
38398;DHT22;24179;52.094;4.408;2023-06-10T04:34:59;18.50;99.90
38398;DHT22;24179;52.094;4.408;2023-06-10T04:38:00;18.60;99.90
38398;DHT22;24179;52.094;4.408;2023-06-10T04:41:03;18.60;99.90
38398;DHT22;24179;52.094;4.408;2023-06-10T04:44:03;18.70;99.90
38398;DHT22;24179;52.094;4.408;2023-06-10T04:47:04;18.70;99.90
38398;DHT22;24179;52.094;4.408;2023-06-10T04:50:04;18.70;99.90
38398;DHT22;24179;52.094;4.408;2023-06-10T04:53:05;18.80;99.90
38398;DHT22;24179;52.094;4.408;2023-06-10T04:56:09;18.80;99.90
38398;DHT22;24179;52.094;4.408;2023-06-10T04:59:09;18.90;99.90
38398;DHT22;24179;52.094;4.408;2023-06-10T05:02:10;19.00;99.90
38398;DHT22;24179;52.094;4.408;2023-06-10T05:05:10;19.00;99.90
38398;DHT22;24179;52.094;4.408;2023-06-10T05:08:11;19.10;99.90
38398;DHT22;24179;52.094;4.408;2023-06-10T05:11:13;19.20;99.90
38398;DHT22;24179;52.094;4.408;2023-06-10T05:14:13;19.20;99.90
38398;DHT22;24179;52.094;4.408;2023-06-10T05:17:16;19.30;99.90
38398;DHT22;24179;52.094;4.408;2023-06-10T05:20:19;19.40;99.90
38398;DHT22;24179;52.094;4.408;2023-06-10T05:23:20;19.40;99.90
38398;DHT22;24179;52.094;4.408;2023-06-10T05:26:21;19.50;99.90
38398;DHT22;24179;52.094;4.408;2023-06-10T05:29:21;19.60;99.90
38398;DHT22;24179;52.094;4.408;2023-06-10T05:32:22;19.60;99.90
38398;DHT22;24179;52.094;4.408;2023-06-10T05:35:23;19.70;99.90
38398;DHT22;24179;52.094;4.408;2023-06-10T05:38:23;19.80;99.90
38398;DHT22;24179;52.094;4.408;2023-06-10T05:41:24;19.90;99.90
38398;DHT22;24179;52.094;4.408;2023-06-10T05:44:25;20.00;99.90
38398;DHT22;24179;52.094;4.408;2023-06-10T05:47:26;20.00;99.90
38398;DHT22;24179;52.094;4.408;2023-06-10T05:50:26;20.00;99.90
38398;DHT22;24179;52.094;4.408;2023-06-10T05:53:27;20.10;99.90
38398;DHT22;24179;52.094;4.408;2023-06-10T05:56:27;20.20;99.90
38398;DHT22;24179;52.094;4.408;2023-06-10T05:59:28;20.30;99.90
38398;DHT22;24179;52.094;4.408;2023-06-10T06:02:28;20.40;99.90
38398;DHT22;24179;52.094;4.408;2023-06-10T06:05:29;20.40;99.90
38398;DHT22;24179;52.094;4.408;2023-06-10T06:08:35;20.40;99.90
38398;DHT22;24179;52.094;4.408;2023-06-10T06:11:35;20.50;99.90
38398;DHT22;24179;52.094;4.408;2023-06-10T06:14:38;20.70;99.90
38398;DHT22;24179;52.094;4.408;2023-06-10T06:17:42;20.70;99.90
38398;DHT22;24179;52.094;4.408;2023-06-10T06:20:42;20.80;99.90
38398;DHT22;24179;52.094;4.408;2023-06-10T06:23:43;21.00;99.90
38398;DHT22;24179;52.094;4.408;2023-06-10T06:26:44;21.10;99.90
38398;DHT22;24179;52.094;4.408;2023-06-10T06:29:45;21.20;99.90
38398;DHT22;24179;52.094;4.408;2023-06-10T06:32:47;21.40;99.90
38398;DHT22;24179;52.094;4.408;2023-06-10T06:35:47;21.90;99.90
38398;DHT22;24179;52.094;4.408;2023-06-10T06:38:48;22.60;99.90
38398;DHT22;24179;52.094;4.408;2023-06-10T06:41:48;23.20;99.90
38398;DHT22;24179;52.094;4.408;2023-06-10T06:44:50;23.80;99.90
38398;DHT22;24179;52.094;4.408;2023-06-10T06:47:50;24.40;98.20
38398;DHT22;24179;52.094;4.408;2023-06-10T06:50:51;25.00;97.80
38398;DHT22;24179;52.094;4.408;2023-06-10T06:53:52;25.60;96.90
38398;DHT22;24179;52.094;4.408;2023-06-10T06:56:54;26.20;95.80
38398;DHT22;24179;52.094;4.408;2023-06-10T06:59:55;26.80;95.80
38398;DHT22;24179;52.094;4.408;2023-06-10T07:02:55;27.20;94.50
38398;DHT22;24179;52.094;4.408;2023-06-10T07:05:57;27.40;93.20
38398;DHT22;24179;52.094;4.408;2023-06-10T07:08:57;27.90;92.70
38398;DHT22;24179;52.094;4.408;2023-06-10T07:11:58;28.20;92.40
38398;DHT22;24179;52.094;4.408;2023-06-10T07:14:58;28.30;92.00
38398;DHT22;24179;52.094;4.408;2023-06-10T07:17:59;28.70;91.20
38398;DHT22;24179;52.094;4.408;2023-06-10T07:20:59;28.90;90.70
38398;DHT22;24179;52.094;4.408;2023-06-10T07:24:00;28.90;90.10
38398;DHT22;24179;52.094;4.408;2023-06-10T07:27:00;29.10;90.00
38398;DHT22;24179;52.094;4.408;2023-06-10T07:30:00;29.40;88.40
38398;DHT22;24179;52.094;4.408;2023-06-10T07:33:01;29.70;87.60
38398;DHT22;24179;52.094;4.408;2023-06-10T07:36:02;30.00;87.50
38398;DHT22;24179;52.094;4.408;2023-06-10T07:39:03;30.10;86.00
38398;DHT22;24179;52.094;4.408;2023-06-10T07:42:03;30.00;85.10
38398;DHT22;24179;52.094;4.408;2023-06-10T07:45:04;30.20;85.20
38398;DHT22;24179;52.094;4.408;2023-06-10T07:48:04;30.60;85.30
38398;DHT22;24179;52.094;4.408;2023-06-10T07:51:06;30.70;84.10
38398;DHT22;24179;52.094;4.408;2023-06-10T07:54:07;31.00;83.20
38398;DHT22;24179;52.094;4.408;2023-06-10T07:57:07;30.90;82.10
38398;DHT22;24179;52.094;4.408;2023-06-10T08:00:08;31.40;81.00
38398;DHT22;24179;52.094;4.408;2023-06-10T08:03:09;31.40;79.70
38398;DHT22;24179;52.094;4.408;2023-06-10T08:06:09;31.40;80.20
38398;DHT22;24179;52.094;4.408;2023-06-10T08:09:11;32.00;81.20
38398;DHT22;24179;52.094;4.408;2023-06-10T08:12:12;32.20;79.10
38398;DHT22;24179;52.094;4.408;2023-06-10T08:15:12;32.40;79.20
38398;DHT22;24179;52.094;4.408;2023-06-10T08:18:13;32.20;77.00
38398;DHT22;24179;52.094;4.408;2023-06-10T08:21:13;32.00;77.40
38398;DHT22;24179;52.094;4.408;2023-06-10T08:24:14;32.20;77.10
38398;DHT22;24179;52.094;4.408;2023-06-10T08:27:16;32.70;77.10
38398;DHT22;24179;52.094;4.408;2023-06-10T08:30:17;33.00;76.50
38398;DHT22;24179;52.094;4.408;2023-06-10T08:33:18;33.00;75.30
38398;DHT22;24179;52.094;4.408;2023-06-10T08:36:18;33.00;75.70
38398;DHT22;24179;52.094;4.408;2023-06-10T08:39:19;33.40;76.20
38398;DHT22;24179;52.094;4.408;2023-06-10T08:42:24;33.50;74.70
38398;DHT22;24179;52.094;4.408;2023-06-10T08:45:26;33.70;74.30
38398;DHT22;24179;52.094;4.408;2023-06-10T08:48:29;34.10;74.20
38398;DHT22;24179;52.094;4.408;2023-06-10T08:51:29;34.50;73.30
38398;DHT22;24179;52.094;4.408;2023-06-10T08:54:31;34.90;73.80
38398;DHT22;24179;52.094;4.408;2023-06-10T08:57:33;35.20;71.40
38398;DHT22;24179;52.094;4.408;2023-06-10T09:00:33;35.00;71.30
38398;DHT22;24179;52.094;4.408;2023-06-10T09:03:36;34.90;70.00
38398;DHT22;24179;52.094;4.408;2023-06-10T09:06:37;35.20;71.20
38398;DHT22;24179;52.094;4.408;2023-06-10T09:09:38;35.20;70.10
38398;DHT22;24179;52.094;4.408;2023-06-10T09:12:39;34.80;69.60
38398;DHT22;24179;52.094;4.408;2023-06-10T09:15:39;34.60;70.50
38398;DHT22;24179;52.094;4.408;2023-06-10T09:18:42;35.10;69.60
38398;DHT22;24179;52.094;4.408;2023-06-10T09:21:42;35.00;70.30
38398;DHT22;24179;52.094;4.408;2023-06-10T09:24:43;35.70;69.10
38398;DHT22;24179;52.094;4.408;2023-06-10T09:27:47;35.60;68.00
38398;DHT22;24179;52.094;4.408;2023-06-10T09:30:50;35.50;67.90
38398;DHT22;24179;52.094;4.408;2023-06-10T09:34:05;35.60;67.40
38398;DHT22;24179;52.094;4.408;2023-06-10T09:37:05;35.70;68.30
38398;DHT22;24179;52.094;4.408;2023-06-10T09:40:07;36.10;68.10
38398;DHT22;24179;52.094;4.408;2023-06-10T09:43:09;36.60;68.10
38398;DHT22;24179;52.094;4.408;2023-06-10T09:46:16;36.90;66.50
38398;DHT22;24179;52.094;4.408;2023-06-10T09:49:17;36.90;67.00
38398;DHT22;24179;52.094;4.408;2023-06-10T09:52:21;36.70;65.90
38398;DHT22;24179;52.094;4.408;2023-06-10T09:55:23;36.60;65.90
38398;DHT22;24179;52.094;4.408;2023-06-10T09:58:33;36.60;66.10
38398;DHT22;24179;52.094;4.408;2023-06-10T10:01:34;36.80;64.20
38398;DHT22;24179;52.094;4.408;2023-06-10T10:04:35;37.20;66.20
38398;DHT22;24179;52.094;4.408;2023-06-10T10:07:36;37.00;63.80
38398;DHT22;24179;52.094;4.408;2023-06-10T10:10:36;36.90;64.20
38398;DHT22;24179;52.094;4.408;2023-06-10T10:13:37;36.70;64.60
38398;DHT22;24179;52.094;4.408;2023-06-10T10:16:39;37.50;65.30
38398;DHT22;24179;52.094;4.408;2023-06-10T10:19:48;37.40;64.40
38398;DHT22;24179;52.094;4.408;2023-06-10T10:22:50;37.20;64.60
38398;DHT22;24179;52.094;4.408;2023-06-10T10:25:54;37.10;64.20
38398;DHT22;24179;52.094;4.408;2023-06-10T10:29:03;37.80;64.20
38398;DHT22;24179;52.094;4.408;2023-06-10T10:32:06;37.90;63.70
38398;DHT22;24179;52.094;4.408;2023-06-10T10:35:16;37.50;63.20
38398;DHT22;24179;52.094;4.408;2023-06-10T10:38:18;37.70;63.50
38398;DHT22;24179;52.094;4.408;2023-06-10T10:41:19;37.60;62.20
38398;DHT22;24179;52.094;4.408;2023-06-10T10:44:20;37.80;63.50
38398;DHT22;24179;52.094;4.408;2023-06-10T10:47:21;38.30;62.90
38398;DHT22;24179;52.094;4.408;2023-06-10T10:50:22;38.40;62.60
38398;DHT22;24179;52.094;4.408;2023-06-10T10:53:22;38.20;61.00
38398;DHT22;24179;52.094;4.408;2023-06-10T10:56:23;37.90;62.00
38398;DHT22;24179;52.094;4.408;2023-06-10T10:59:43;38.30;62.20
38398;DHT22;24179;52.094;4.408;2023-06-10T11:02:44;38.40;61.70
38398;DHT22;24179;52.094;4.408;2023-06-10T11:05:47;38.80;61.80
38398;DHT22;24179;52.094;4.408;2023-06-10T11:08:51;39.00;61.30
38398;DHT22;24179;52.094;4.408;2023-06-10T11:11:51;39.00;61.40
38398;DHT22;24179;52.094;4.408;2023-06-10T11:14:55;38.70;61.10
38398;DHT22;24179;52.094;4.408;2023-06-10T11:18:12;38.70;61.20
38398;DHT22;24179;52.094;4.408;2023-06-10T11:21:13;38.90;60.20
38398;DHT22;24179;52.094;4.408;2023-06-10T11:24:17;39.00;60.10
38398;DHT22;24179;52.094;4.408;2023-06-10T11:30:20;38.70;59.60
38398;DHT22;24179;52.094;4.408;2023-06-10T11:33:21;38.90;59.40
38398;DHT22;24179;52.094;4.408;2023-06-10T11:36:22;38.90;59.80
38398;DHT22;24179;52.094;4.408;2023-06-10T11:39:23;39.40;59.90
38398;DHT22;24179;52.094;4.408;2023-06-10T11:42:24;39.90;59.40
38398;DHT22;24179;52.094;4.408;2023-06-10T11:45:25;39.60;58.00
38398;DHT22;24179;52.094;4.408;2023-06-10T11:48:25;39.70;58.50
38398;DHT22;24179;52.094;4.408;2023-06-10T11:51:31;39.80;58.10
38398;DHT22;24179;52.094;4.408;2023-06-10T11:54:32;39.60;57.70
38398;DHT22;24179;52.094;4.408;2023-06-10T11:57:35;39.70;57.90
38398;DHT22;24179;52.094;4.408;2023-06-10T12:00:43;39.70;57.30
38398;DHT22;24179;52.094;4.408;2023-06-10T12:03:43;40.30;56.80
38398;DHT22;24179;52.094;4.408;2023-06-10T12:06:44;40.60;56.80
38398;DHT22;24179;52.094;4.408;2023-06-10T12:09:46;40.60;56.50
38398;DHT22;24179;52.094;4.408;2023-06-10T12:12:47;40.40;56.50
38398;DHT22;24179;52.094;4.408;2023-06-10T12:15:48;40.50;56.40
38398;DHT22;24179;52.094;4.408;2023-06-10T12:18:49;40.70;56.80
38398;DHT22;24179;52.094;4.408;2023-06-10T12:21:49;40.70;55.90
38398;DHT22;24179;52.094;4.408;2023-06-10T12:25:02;40.60;56.10
38398;DHT22;24179;52.094;4.408;2023-06-10T12:28:04;40.10;55.40
38398;DHT22;24179;52.094;4.408;2023-06-10T12:31:07;39.70;55.20
38398;DHT22;24179;52.094;4.408;2023-06-10T12:34:08;39.60;55.80
38398;DHT22;24179;52.094;4.408;2023-06-10T12:37:10;39.90;54.90
38398;DHT22;24179;52.094;4.408;2023-06-10T12:40:13;40.00;55.20
38398;DHT22;24179;52.094;4.408;2023-06-10T12:43:18;40.10;55.40
38398;DHT22;24179;52.094;4.408;2023-06-10T12:46:19;40.10;55.80
38398;DHT22;24179;52.094;4.408;2023-06-10T12:49:20;40.20;54.80
38398;DHT22;24179;52.094;4.408;2023-06-10T12:52:20;40.30;55.00
38398;DHT22;24179;52.094;4.408;2023-06-10T12:55:20;40.50;54.60
38398;DHT22;24179;52.094;4.408;2023-06-10T12:58:22;40.50;55.50
38398;DHT22;24179;52.094;4.408;2023-06-10T13:01:23;40.70;55.10
38398;DHT22;24179;52.094;4.408;2023-06-10T13:04:23;40.40;54.30
38398;DHT22;24179;52.094;4.408;2023-06-10T13:07:24;40.40;54.30
38398;DHT22;24179;52.094;4.408;2023-06-10T13:10:24;40.30;54.70
38398;DHT22;24179;52.094;4.408;2023-06-10T13:13:25;40.40;54.20
38398;DHT22;24179;52.094;4.408;2023-06-10T13:16:26;40.30;53.70
38398;DHT22;24179;52.094;4.408;2023-06-10T13:19:26;40.10;54.10
38398;DHT22;24179;52.094;4.408;2023-06-10T13:22:27;40.10;54.50
38398;DHT22;24179;52.094;4.408;2023-06-10T13:25:27;40.30;54.40
38398;DHT22;24179;52.094;4.408;2023-06-10T13:28:28;40.10;53.50
38398;DHT22;24179;52.094;4.408;2023-06-10T13:31:28;40.10;53.50
38398;DHT22;24179;52.094;4.408;2023-06-10T13:34:29;40.50;54.00
38398;DHT22;24179;52.094;4.408;2023-06-10T13:37:29;40.90;54.50
38398;DHT22;24179;52.094;4.408;2023-06-10T13:40:30;40.70;53.20
38398;DHT22;24179;52.094;4.408;2023-06-10T13:43:31;40.40;54.90
38398;DHT22;24179;52.094;4.408;2023-06-10T13:46:31;40.10;53.90
38398;DHT22;24179;52.094;4.408;2023-06-10T13:49:32;40.30;54.00
38398;DHT22;24179;52.094;4.408;2023-06-10T13:52:32;40.20;54.40
38398;DHT22;24179;52.094;4.408;2023-06-10T13:55:33;40.20;54.10
38398;DHT22;24179;52.094;4.408;2023-06-10T13:58:33;40.20;53.40
38398;DHT22;24179;52.094;4.408;2023-06-10T14:01:39;40.20;54.30
38398;DHT22;24179;52.094;4.408;2023-06-10T14:04:40;40.00;54.20
38398;DHT22;24179;52.094;4.408;2023-06-10T14:07:41;40.20;53.90
38398;DHT22;24179;52.094;4.408;2023-06-10T14:10:41;40.50;54.30
38398;DHT22;24179;52.094;4.408;2023-06-10T14:13:42;40.60;53.70
38398;DHT22;24179;52.094;4.408;2023-06-10T14:16:42;40.70;53.00
38398;DHT22;24179;52.094;4.408;2023-06-10T14:19:43;40.70;53.70
38398;DHT22;24179;52.094;4.408;2023-06-10T14:22:43;40.70;53.60
38398;DHT22;24179;52.094;4.408;2023-06-10T14:25:44;40.60;53.40
38398;DHT22;24179;52.094;4.408;2023-06-10T14:28:44;40.70;53.30
38398;DHT22;24179;52.094;4.408;2023-06-10T14:31:45;40.70;52.60
38398;DHT22;24179;52.094;4.408;2023-06-10T14:34:45;40.70;52.90
38398;DHT22;24179;52.094;4.408;2023-06-10T14:37:47;41.00;52.60
38398;DHT22;24179;52.094;4.408;2023-06-10T14:40:47;41.00;53.30
38398;DHT22;24179;52.094;4.408;2023-06-10T14:43:48;40.80;53.50
38398;DHT22;24179;52.094;4.408;2023-06-10T14:46:48;41.00;53.20
38398;DHT22;24179;52.094;4.408;2023-06-10T14:49:49;41.60;52.90
38398;DHT22;24179;52.094;4.408;2023-06-10T14:52:49;41.70;52.30
38398;DHT22;24179;52.094;4.408;2023-06-10T14:55:49;41.40;51.80
38398;DHT22;24179;52.094;4.408;2023-06-10T14:58:50;41.30;51.50
38398;DHT22;24179;52.094;4.408;2023-06-10T15:01:50;41.30;52.50
38398;DHT22;24179;52.094;4.408;2023-06-10T15:04:51;41.10;52.70
38398;DHT22;24179;52.094;4.408;2023-06-10T15:07:52;41.50;52.10
38398;DHT22;24179;52.094;4.408;2023-06-10T15:10:52;41.30;51.90
38398;DHT22;24179;52.094;4.408;2023-06-10T15:13:53;41.00;51.50
38398;DHT22;24179;52.094;4.408;2023-06-10T15:16:53;40.70;52.30
38398;DHT22;24179;52.094;4.408;2023-06-10T15:19:54;40.70;52.70
38398;DHT22;24179;52.094;4.408;2023-06-10T15:22:54;40.50;52.10
38398;DHT22;24179;52.094;4.408;2023-06-10T15:25:55;40.30;52.60
38398;DHT22;24179;52.094;4.408;2023-06-10T15:28:55;40.30;51.80
38398;DHT22;24179;52.094;4.408;2023-06-10T15:31:56;40.10;52.30
38398;DHT22;24179;52.094;4.408;2023-06-10T15:34:56;40.00;52.20
38398;DHT22;24179;52.094;4.408;2023-06-10T15:37:56;39.80;52.50
38398;DHT22;24179;52.094;4.408;2023-06-10T15:40:57;39.80;52.30
38398;DHT22;24179;52.094;4.408;2023-06-10T15:43:57;39.60;53.40
38398;DHT22;24179;52.094;4.408;2023-06-10T15:47:00;39.80;52.90
38398;DHT22;24179;52.094;4.408;2023-06-10T15:50:00;39.60;52.20
38398;DHT22;24179;52.094;4.408;2023-06-10T15:53:00;39.40;52.40
38398;DHT22;24179;52.094;4.408;2023-06-10T15:56:01;39.00;52.40
38398;DHT22;24179;52.094;4.408;2023-06-10T15:59:02;38.80;53.00
38398;DHT22;24179;52.094;4.408;2023-06-10T16:02:02;39.20;52.70
38398;DHT22;24179;52.094;4.408;2023-06-10T16:05:04;39.10;52.50
38398;DHT22;24179;52.094;4.408;2023-06-10T16:08:05;38.90;52.40
38398;DHT22;24179;52.094;4.408;2023-06-10T16:11:06;38.80;53.00
38398;DHT22;24179;52.094;4.408;2023-06-10T16:14:07;38.90;53.10
38398;DHT22;24179;52.094;4.408;2023-06-10T16:17:07;38.70;52.30
38398;DHT22;24179;52.094;4.408;2023-06-10T16:20:08;37.60;52.30
38398;DHT22;24179;52.094;4.408;2023-06-10T16:23:08;36.50;52.40
38398;DHT22;24179;52.094;4.408;2023-06-10T16:26:09;35.90;52.90
38398;DHT22;24179;52.094;4.408;2023-06-10T16:29:09;35.10;53.20
38398;DHT22;24179;52.094;4.408;2023-06-10T16:32:09;34.00;54.40
38398;DHT22;24179;52.094;4.408;2023-06-10T16:35:10;33.10;55.40
38398;DHT22;24179;52.094;4.408;2023-06-10T16:38:11;32.20;55.30
38398;DHT22;24179;52.094;4.408;2023-06-10T16:41:12;31.90;55.40
38398;DHT22;24179;52.094;4.408;2023-06-10T16:44:12;31.60;55.90
38398;DHT22;24179;52.094;4.408;2023-06-10T16:47:15;31.30;55.90
38398;DHT22;24179;52.094;4.408;2023-06-10T16:50:15;31.10;57.20
38398;DHT22;24179;52.094;4.408;2023-06-10T16:53:16;31.00;56.80
38398;DHT22;24179;52.094;4.408;2023-06-10T16:56:16;30.90;56.80
38398;DHT22;24179;52.094;4.408;2023-06-10T16:59:17;30.80;56.30
38398;DHT22;24179;52.094;4.408;2023-06-10T17:02:17;30.70;56.40
38398;DHT22;24179;52.094;4.408;2023-06-10T17:05:18;30.60;57.30
38398;DHT22;24179;52.094;4.408;2023-06-10T17:08:18;30.50;58.00
38398;DHT22;24179;52.094;4.408;2023-06-10T17:11:19;30.30;57.10
38398;DHT22;24179;52.094;4.408;2023-06-10T17:14:19;30.30;56.80
38398;DHT22;24179;52.094;4.408;2023-06-10T17:17:20;30.20;57.00
38398;DHT22;24179;52.094;4.408;2023-06-10T17:20:20;30.10;56.50
38398;DHT22;24179;52.094;4.408;2023-06-10T17:23:21;30.00;56.90
38398;DHT22;24179;52.094;4.408;2023-06-10T17:26:22;29.90;56.60
38398;DHT22;24179;52.094;4.408;2023-06-10T17:29:22;29.80;56.60
38398;DHT22;24179;52.094;4.408;2023-06-10T17:32:23;29.70;57.00
38398;DHT22;24179;52.094;4.408;2023-06-10T17:35:23;29.70;57.30
38398;DHT22;24179;52.094;4.408;2023-06-10T17:38:24;29.60;57.50
38398;DHT22;24179;52.094;4.408;2023-06-10T17:41:24;29.50;57.00
38398;DHT22;24179;52.094;4.408;2023-06-10T17:44:26;29.40;56.90
38398;DHT22;24179;52.094;4.408;2023-06-10T17:47:28;29.30;57.30
38398;DHT22;24179;52.094;4.408;2023-06-10T17:50:29;29.20;57.40
38398;DHT22;24179;52.094;4.408;2023-06-10T17:53:29;29.10;57.10
38398;DHT22;24179;52.094;4.408;2023-06-10T17:56:30;29.00;57.60
38398;DHT22;24179;52.094;4.408;2023-06-10T17:59:30;29.00;57.60
38398;DHT22;24179;52.094;4.408;2023-06-10T18:02:31;28.90;58.00
38398;DHT22;24179;52.094;4.408;2023-06-10T18:05:31;28.80;57.60
38398;DHT22;24179;52.094;4.408;2023-06-10T18:08:32;28.60;57.40
38398;DHT22;24179;52.094;4.408;2023-06-10T18:11:35;28.60;57.50
38398;DHT22;24179;52.094;4.408;2023-06-10T18:14:35;28.50;57.50
38398;DHT22;24179;52.094;4.408;2023-06-10T18:17:36;28.30;57.00
38398;DHT22;24179;52.094;4.408;2023-06-10T18:20:36;28.20;57.30
38398;DHT22;24179;52.094;4.408;2023-06-10T18:23:37;28.10;57.00
38398;DHT22;24179;52.094;4.408;2023-06-10T18:26:37;28.00;57.10
38398;DHT22;24179;52.094;4.408;2023-06-10T18:29:38;27.90;57.40
38398;DHT22;24179;52.094;4.408;2023-06-10T18:32:38;27.80;57.40
38398;DHT22;24179;52.094;4.408;2023-06-10T18:35:39;27.70;57.10
38398;DHT22;24179;52.094;4.408;2023-06-10T18:38:39;27.60;57.70
38398;DHT22;24179;52.094;4.408;2023-06-10T18:41:40;27.50;57.40
38398;DHT22;24179;52.094;4.408;2023-06-10T18:44:40;27.30;57.40
38398;DHT22;24179;52.094;4.408;2023-06-10T18:47:41;27.20;57.40
38398;DHT22;24179;52.094;4.408;2023-06-10T18:50:41;27.10;57.50
38398;DHT22;24179;52.094;4.408;2023-06-10T18:53:42;27.10;57.20
38398;DHT22;24179;52.094;4.408;2023-06-10T18:56:42;27.00;57.30
38398;DHT22;24179;52.094;4.408;2023-06-10T18:59:43;26.90;57.60
38398;DHT22;24179;52.094;4.408;2023-06-10T19:02:43;26.70;57.10
38398;DHT22;24179;52.094;4.408;2023-06-10T19:05:44;26.70;57.20
38398;DHT22;24179;52.094;4.408;2023-06-10T19:08:44;26.60;57.40
38398;DHT22;24179;52.094;4.408;2023-06-10T19:11:46;26.50;57.70